sensor_id;sensor_type;location;lat;lon;timestamp;P1;durP1;ratioP1;P2;durP2;ratioP2
17052;SDS011;8643;48.824;11.422;2023-05-07T00:01:48;6.18;;;2.10;;
17052;SDS011;8643;48.824;11.422;2023-05-07T00:04:16;2.95;;;2.00;;
17052;SDS011;8643;48.824;11.422;2023-05-07T00:06:45;2.63;;;2.10;;
17052;SDS011;8643;48.824;11.422;2023-05-07T00:09:15;3.78;;;2.00;;
17052;SDS011;8643;48.824;11.422;2023-05-07T00:11:44;4.40;;;2.30;;
17052;SDS011;8643;48.824;11.422;2023-05-07T00:14:12;3.38;;;1.90;;
17052;SDS011;8643;48.824;11.422;2023-05-07T00:16:41;2.20;;;1.80;;
17052;SDS011;8643;48.824;11.422;2023-05-07T00:19:10;2.45;;;2.15;;
17052;SDS011;8643;48.824;11.422;2023-05-07T00:21:38;3.15;;;2.08;;
17052;SDS011;8643;48.824;11.422;2023-05-07T00:24:07;2.83;;;2.10;;
17052;SDS011;8643;48.824;11.422;2023-05-07T00:26:38;3.90;;;2.05;;
17052;SDS011;8643;48.824;11.422;2023-05-07T00:29:06;5.72;;;2.50;;
17052;SDS011;8643;48.824;11.422;2023-05-07T00:31:35;6.45;;;2.40;;
17052;SDS011;8643;48.824;11.422;2023-05-07T00:34:04;4.07;;;2.00;;
17052;SDS011;8643;48.824;11.422;2023-05-07T00:36:33;4.13;;;2.15;;
17052;SDS011;8643;48.824;11.422;2023-05-07T00:39:02;5.20;;;2.38;;
17052;SDS011;8643;48.824;11.422;2023-05-07T00:41:31;2.55;;;2.22;;
17052;SDS011;8643;48.824;11.422;2023-05-07T00:44:01;3.55;;;2.35;;
17052;SDS011;8643;48.824;11.422;2023-05-07T00:46:30;4.80;;;2.40;;
17052;SDS011;8643;48.824;11.422;2023-05-07T00:49:00;3.70;;;2.58;;
17052;SDS011;8643;48.824;11.422;2023-05-07T00:51:29;3.83;;;2.28;;
17052;SDS011;8643;48.824;11.422;2023-05-07T00:53:59;3.22;;;2.03;;
17052;SDS011;8643;48.824;11.422;2023-05-07T00:56:29;3.33;;;2.00;;
17052;SDS011;8643;48.824;11.422;2023-05-07T00:59:00;2.65;;;2.22;;
17052;SDS011;8643;48.824;11.422;2023-05-07T01:01:29;3.60;;;2.50;;
17052;SDS011;8643;48.824;11.422;2023-05-07T01:03:58;2.70;;;2.00;;
17052;SDS011;8643;48.824;11.422;2023-05-07T01:06:28;2.67;;;2.00;;
17052;SDS011;8643;48.824;11.422;2023-05-07T01:09:00;3.13;;;2.40;;
17052;SDS011;8643;48.824;11.422;2023-05-07T01:11:31;4.63;;;2.22;;
17052;SDS011;8643;48.824;11.422;2023-05-07T01:14:01;2.88;;;2.40;;
17052;SDS011;8643;48.824;11.422;2023-05-07T01:16:30;4.03;;;2.60;;
17052;SDS011;8643;48.824;11.422;2023-05-07T01:18:59;3.15;;;2.20;;
17052;SDS011;8643;48.824;11.422;2023-05-07T01:21:29;3.80;;;2.33;;
17052;SDS011;8643;48.824;11.422;2023-05-07T01:24:05;3.75;;;2.25;;
17052;SDS011;8643;48.824;11.422;2023-05-07T01:26:34;4.47;;;2.30;;
17052;SDS011;8643;48.824;11.422;2023-05-07T01:29:03;3.08;;;2.30;;
17052;SDS011;8643;48.824;11.422;2023-05-07T01:31:33;3.80;;;2.30;;
17052;SDS011;8643;48.824;11.422;2023-05-07T01:34:04;2.80;;;2.55;;
17052;SDS011;8643;48.824;11.422;2023-05-07T01:36:36;4.15;;;2.40;;
17052;SDS011;8643;48.824;11.422;2023-05-07T01:39:07;3.70;;;2.37;;
17052;SDS011;8643;48.824;11.422;2023-05-07T01:41:37;5.32;;;2.50;;
17052;SDS011;8643;48.824;11.422;2023-05-07T01:44:06;3.63;;;2.38;;
17052;SDS011;8643;48.824;11.422;2023-05-07T01:46:37;3.78;;;2.20;;
17052;SDS011;8643;48.824;11.422;2023-05-07T01:49:06;3.88;;;2.80;;
17052;SDS011;8643;48.824;11.422;2023-05-07T01:51:35;4.00;;;2.78;;
17052;SDS011;8643;48.824;11.422;2023-05-07T01:54:04;4.68;;;2.45;;
17052;SDS011;8643;48.824;11.422;2023-05-07T01:56:36;5.68;;;2.70;;
17052;SDS011;8643;48.824;11.422;2023-05-07T01:59:04;4.10;;;2.80;;
17052;SDS011;8643;48.824;11.422;2023-05-07T02:01:33;5.43;;;2.60;;
17052;SDS011;8643;48.824;11.422;2023-05-07T02:04:02;3.53;;;2.88;;
17052;SDS011;8643;48.824;11.422;2023-05-07T02:06:31;2.75;;;2.33;;
17052;SDS011;8643;48.824;11.422;2023-05-07T02:09:03;6.32;;;2.80;;
17052;SDS011;8643;48.824;11.422;2023-05-07T02:11:32;6.05;;;3.10;;
17052;SDS011;8643;48.824;11.422;2023-05-07T02:14:02;3.45;;;2.70;;
17052;SDS011;8643;48.824;11.422;2023-05-07T02:16:31;2.93;;;2.50;;
17052;SDS011;8643;48.824;11.422;2023-05-07T02:19:00;3.60;;;2.72;;
17052;SDS011;8643;48.824;11.422;2023-05-07T02:21:29;4.18;;;2.80;;
17052;SDS011;8643;48.824;11.422;2023-05-07T02:23:58;4.20;;;3.10;;
17052;SDS011;8643;48.824;11.422;2023-05-07T02:26:26;3.03;;;2.65;;
17052;SDS011;8643;48.824;11.422;2023-05-07T02:28:55;4.32;;;2.90;;
17052;SDS011;8643;48.824;11.422;2023-05-07T02:31:25;4.00;;;2.78;;
17052;SDS011;8643;48.824;11.422;2023-05-07T02:33:54;6.70;;;2.80;;
17052;SDS011;8643;48.824;11.422;2023-05-07T02:36:23;4.50;;;2.90;;
17052;SDS011;8643;48.824;11.422;2023-05-07T02:39:07;4.68;;;2.72;;
17052;SDS011;8643;48.824;11.422;2023-05-07T02:41:36;4.32;;;2.40;;
17052;SDS011;8643;48.824;11.422;2023-05-07T02:44:04;4.32;;;2.75;;
17052;SDS011;8643;48.824;11.422;2023-05-07T02:46:35;3.22;;;2.88;;
17052;SDS011;8643;48.824;11.422;2023-05-07T02:49:08;3.10;;;2.70;;
17052;SDS011;8643;48.824;11.422;2023-05-07T02:51:37;5.30;;;3.08;;
17052;SDS011;8643;48.824;11.422;2023-05-07T02:54:10;6.40;;;3.00;;
17052;SDS011;8643;48.824;11.422;2023-05-07T02:56:39;3.55;;;2.80;;
17052;SDS011;8643;48.824;11.422;2023-05-07T02:59:08;3.53;;;3.03;;
17052;SDS011;8643;48.824;11.422;2023-05-07T03:01:41;5.03;;;3.20;;
17052;SDS011;8643;48.824;11.422;2023-05-07T03:04:12;5.43;;;3.30;;
17052;SDS011;8643;48.824;11.422;2023-05-07T03:06:40;3.55;;;3.25;;
17052;SDS011;8643;48.824;11.422;2023-05-07T03:09:09;3.35;;;3.05;;
17052;SDS011;8643;48.824;11.422;2023-05-07T03:11:38;5.00;;;3.40;;
17052;SDS011;8643;48.824;11.422;2023-05-07T03:14:07;4.22;;;3.58;;
17052;SDS011;8643;48.824;11.422;2023-05-07T03:16:35;4.93;;;3.53;;
17052;SDS011;8643;48.824;11.422;2023-05-07T03:19:06;5.63;;;3.90;;
17052;SDS011;8643;48.824;11.422;2023-05-07T03:21:34;6.18;;;3.90;;
17052;SDS011;8643;48.824;11.422;2023-05-07T03:24:03;5.57;;;3.97;;
17052;SDS011;8643;48.824;11.422;2023-05-07T03:26:33;5.03;;;3.90;;
17052;SDS011;8643;48.824;11.422;2023-05-07T03:29:01;5.50;;;4.53;;
17052;SDS011;8643;48.824;11.422;2023-05-07T03:31:30;7.10;;;4.43;;
17052;SDS011;8643;48.824;11.422;2023-05-07T03:34:00;6.43;;;4.47;;
17052;SDS011;8643;48.824;11.422;2023-05-07T03:36:31;6.13;;;4.60;;
17052;SDS011;8643;48.824;11.422;2023-05-07T03:38:59;6.93;;;4.28;;
17052;SDS011;8643;48.824;11.422;2023-05-07T03:41:35;5.63;;;4.30;;
17052;SDS011;8643;48.824;11.422;2023-05-07T03:44:04;5.87;;;4.37;;
17052;SDS011;8643;48.824;11.422;2023-05-07T03:46:33;5.10;;;4.07;;
17052;SDS011;8643;48.824;11.422;2023-05-07T03:49:02;5.00;;;4.13;;
17052;SDS011;8643;48.824;11.422;2023-05-07T03:51:33;4.87;;;3.93;;
17052;SDS011;8643;48.824;11.422;2023-05-07T03:54:04;8.97;;;4.67;;
17052;SDS011;8643;48.824;11.422;2023-05-07T03:56:33;6.00;;;4.30;;
17052;SDS011;8643;48.824;11.422;2023-05-07T03:59:02;6.53;;;4.33;;
17052;SDS011;8643;48.824;11.422;2023-05-07T04:01:30;6.40;;;5.13;;
17052;SDS011;8643;48.824;11.422;2023-05-07T04:03:59;6.97;;;4.70;;
17052;SDS011;8643;48.824;11.422;2023-05-07T04:06:29;6.60;;;4.93;;
17052;SDS011;8643;48.824;11.422;2023-05-07T04:08:59;6.70;;;4.87;;
17052;SDS011;8643;48.824;11.422;2023-05-07T04:11:29;6.43;;;5.30;;
17052;SDS011;8643;48.824;11.422;2023-05-07T04:13:58;11.20;;;5.20;;
17052;SDS011;8643;48.824;11.422;2023-05-07T04:16:27;7.10;;;4.90;;
17052;SDS011;8643;48.824;11.422;2023-05-07T04:18:55;6.00;;;4.90;;
17052;SDS011;8643;48.824;11.422;2023-05-07T04:21:24;6.30;;;4.67;;
17052;SDS011;8643;48.824;11.422;2023-05-07T04:23:55;6.00;;;4.43;;
17052;SDS011;8643;48.824;11.422;2023-05-07T04:26:25;5.80;;;4.80;;
17052;SDS011;8643;48.824;11.422;2023-05-07T04:28:55;6.40;;;4.70;;
17052;SDS011;8643;48.824;11.422;2023-05-07T04:31:25;5.73;;;4.50;;
17052;SDS011;8643;48.824;11.422;2023-05-07T04:33:54;5.27;;;4.30;;
17052;SDS011;8643;48.824;11.422;2023-05-07T04:36:23;6.50;;;4.60;;
17052;SDS011;8643;48.824;11.422;2023-05-07T04:38:59;7.47;;;4.80;;
17052;SDS011;8643;48.824;11.422;2023-05-07T04:41:29;7.90;;;4.90;;
17052;SDS011;8643;48.824;11.422;2023-05-07T04:43:59;6.60;;;4.70;;
17052;SDS011;8643;48.824;11.422;2023-05-07T04:46:29;6.23;;;4.67;;
17052;SDS011;8643;48.824;11.422;2023-05-07T04:48:58;6.10;;;4.93;;
17052;SDS011;8643;48.824;11.422;2023-05-07T04:51:27;6.37;;;4.73;;
17052;SDS011;8643;48.824;11.422;2023-05-07T04:53:56;5.67;;;4.90;;
17052;SDS011;8643;48.824;11.422;2023-05-07T04:56:27;6.43;;;5.10;;
17052;SDS011;8643;48.824;11.422;2023-05-07T04:58:59;7.03;;;4.80;;
17052;SDS011;8643;48.824;11.422;2023-05-07T05:01:29;10.45;;;5.50;;
17052;SDS011;8643;48.824;11.422;2023-05-07T05:03:58;7.65;;;5.47;;
17052;SDS011;8643;48.824;11.422;2023-05-07T05:06:28;8.32;;;5.88;;
17052;SDS011;8643;48.824;11.422;2023-05-07T05:09:01;6.57;;;5.15;;
17052;SDS011;8643;48.824;11.422;2023-05-07T05:11:34;6.78;;;4.88;;
17052;SDS011;8643;48.824;11.422;2023-05-07T05:14:03;6.68;;;4.88;;
17052;SDS011;8643;48.824;11.422;2023-05-07T05:16:32;6.25;;;4.65;;
17052;SDS011;8643;48.824;11.422;2023-05-07T05:19:01;6.25;;;4.85;;
17052;SDS011;8643;48.824;11.422;2023-05-07T05:21:33;8.80;;;5.20;;
17052;SDS011;8643;48.824;11.422;2023-05-07T05:24:06;7.68;;;5.22;;
17052;SDS011;8643;48.824;11.422;2023-05-07T05:26:37;8.10;;;5.80;;
17052;SDS011;8643;48.824;11.422;2023-05-07T05:29:06;7.53;;;6.03;;
17052;SDS011;8643;48.824;11.422;2023-05-07T05:31:38;7.43;;;5.68;;
17052;SDS011;8643;48.824;11.422;2023-05-07T05:34:08;8.98;;;5.72;;
17052;SDS011;8643;48.824;11.422;2023-05-07T05:36:37;9.10;;;6.30;;
17052;SDS011;8643;48.824;11.422;2023-05-07T05:39:06;8.85;;;5.95;;
17052;SDS011;8643;48.824;11.422;2023-05-07T05:41:37;7.13;;;5.60;;
17052;SDS011;8643;48.824;11.422;2023-05-07T05:44:07;8.77;;;6.65;;
17052;SDS011;8643;48.824;11.422;2023-05-07T05:46:36;8.27;;;6.38;;
17052;SDS011;8643;48.824;11.422;2023-05-07T05:49:05;9.23;;;6.50;;
17052;SDS011;8643;48.824;11.422;2023-05-07T05:51:34;9.50;;;6.53;;
17052;SDS011;8643;48.824;11.422;2023-05-07T05:54:03;8.45;;;5.55;;
17052;SDS011;8643;48.824;11.422;2023-05-07T05:56:32;7.85;;;6.40;;
17052;SDS011;8643;48.824;11.422;2023-05-07T05:59:03;5.80;;;4.97;;
17052;SDS011;8643;48.824;11.422;2023-05-07T06:01:33;7.38;;;5.15;;
17052;SDS011;8643;48.824;11.422;2023-05-07T06:04:03;6.72;;;5.50;;
17052;SDS011;8643;48.824;11.422;2023-05-07T06:06:33;7.70;;;5.22;;
17052;SDS011;8643;48.824;11.422;2023-05-07T06:09:02;6.05;;;5.00;;
17052;SDS011;8643;48.824;11.422;2023-05-07T06:11:37;5.85;;;4.50;;
17052;SDS011;8643;48.824;11.422;2023-05-07T06:14:09;6.60;;;4.88;;
17052;SDS011;8643;48.824;11.422;2023-05-07T06:16:38;5.97;;;4.60;;
17052;SDS011;8643;48.824;11.422;2023-05-07T06:19:07;6.38;;;5.10;;
17052;SDS011;8643;48.824;11.422;2023-05-07T06:21:38;6.28;;;4.53;;
17052;SDS011;8643;48.824;11.422;2023-05-07T06:24:08;5.72;;;4.15;;
17052;SDS011;8643;48.824;11.422;2023-05-07T06:26:38;4.85;;;4.32;;
17052;SDS011;8643;48.824;11.422;2023-05-07T06:29:07;7.45;;;4.47;;
17052;SDS011;8643;48.824;11.422;2023-05-07T06:31:39;5.90;;;4.47;;
17052;SDS011;8643;48.824;11.422;2023-05-07T06:34:10;7.65;;;4.40;;
17052;SDS011;8643;48.824;11.422;2023-05-07T06:36:41;5.93;;;4.90;;
17052;SDS011;8643;48.824;11.422;2023-05-07T06:39:22;5.63;;;4.65;;
17052;SDS011;8643;48.824;11.422;2023-05-07T06:41:51;6.57;;;4.93;;
17052;SDS011;8643;48.824;11.422;2023-05-07T06:44:31;5.70;;;4.60;;
17052;SDS011;8643;48.824;11.422;2023-05-07T06:47:06;7.30;;;4.85;;
17052;SDS011;8643;48.824;11.422;2023-05-07T06:49:37;7.63;;;4.50;;
17052;SDS011;8643;48.824;11.422;2023-05-07T06:52:06;6.38;;;4.22;;
17052;SDS011;8643;48.824;11.422;2023-05-07T06:54:35;7.68;;;4.72;;
17052;SDS011;8643;48.824;11.422;2023-05-07T06:57:05;5.68;;;4.50;;
17052;SDS011;8643;48.824;11.422;2023-05-07T06:59:35;6.88;;;4.53;;
17052;SDS011;8643;48.824;11.422;2023-05-07T07:02:04;5.78;;;4.80;;
17052;SDS011;8643;48.824;11.422;2023-05-07T07:04:33;7.35;;;5.30;;
17052;SDS011;8643;48.824;11.422;2023-05-07T07:07:06;6.00;;;4.97;;
17052;SDS011;8643;48.824;11.422;2023-05-07T07:09:35;7.18;;;5.32;;
17052;SDS011;8643;48.824;11.422;2023-05-07T07:12:05;6.75;;;5.35;;
17052;SDS011;8643;48.824;11.422;2023-05-07T07:14:38;7.90;;;5.13;;
17052;SDS011;8643;48.824;11.422;2023-05-07T07:17:07;5.90;;;5.30;;
17052;SDS011;8643;48.824;11.422;2023-05-07T07:19:36;6.88;;;6.00;;
17052;SDS011;8643;48.824;11.422;2023-05-07T07:22:06;10.20;;;5.25;;
17052;SDS011;8643;48.824;11.422;2023-05-07T07:24:36;7.03;;;4.82;;
17052;SDS011;8643;48.824;11.422;2023-05-07T07:27:08;9.30;;;5.00;;
17052;SDS011;8643;48.824;11.422;2023-05-07T07:29:39;6.70;;;4.40;;
17052;SDS011;8643;48.824;11.422;2023-05-07T07:32:08;6.32;;;4.65;;
17052;SDS011;8643;48.824;11.422;2023-05-07T07:34:37;5.68;;;4.82;;
17052;SDS011;8643;48.824;11.422;2023-05-07T07:37:06;5.15;;;4.65;;
17052;SDS011;8643;48.824;11.422;2023-05-07T07:39:36;7.60;;;4.90;;
17052;SDS011;8643;48.824;11.422;2023-05-07T07:42:07;6.60;;;4.97;;
17052;SDS011;8643;48.824;11.422;2023-05-07T07:44:37;5.80;;;4.32;;
17052;SDS011;8643;48.824;11.422;2023-05-07T07:47:10;5.40;;;4.50;;
17052;SDS011;8643;48.824;11.422;2023-05-07T07:49:39;6.22;;;4.85;;
17052;SDS011;8643;48.824;11.422;2023-05-07T07:52:09;6.22;;;4.70;;
17052;SDS011;8643;48.824;11.422;2023-05-07T07:54:41;10.00;;;4.45;;
17052;SDS011;8643;48.824;11.422;2023-05-07T07:57:10;6.05;;;4.70;;
17052;SDS011;8643;48.824;11.422;2023-05-07T07:59:40;5.50;;;4.60;;
17052;SDS011;8643;48.824;11.422;2023-05-07T08:02:12;5.68;;;4.90;;
17052;SDS011;8643;48.824;11.422;2023-05-07T08:04:41;8.18;;;5.22;;
17052;SDS011;8643;48.824;11.422;2023-05-07T08:07:11;6.13;;;4.63;;
17052;SDS011;8643;48.824;11.422;2023-05-07T08:09:43;4.63;;;4.13;;
17052;SDS011;8643;48.824;11.422;2023-05-07T08:12:13;5.03;;;4.22;;
17052;SDS011;8643;48.824;11.422;2023-05-07T08:14:43;8.15;;;4.40;;
17052;SDS011;8643;48.824;11.422;2023-05-07T08:17:12;5.30;;;3.88;;
17052;SDS011;8643;48.824;11.422;2023-05-07T08:19:43;5.70;;;4.70;;
17052;SDS011;8643;48.824;11.422;2023-05-07T08:22:13;6.90;;;4.30;;
17052;SDS011;8643;48.824;11.422;2023-05-07T08:24:44;4.40;;;4.00;;
17052;SDS011;8643;48.824;11.422;2023-05-07T08:27:13;4.95;;;4.18;;
17052;SDS011;8643;48.824;11.422;2023-05-07T08:29:41;6.80;;;4.43;;
17052;SDS011;8643;48.824;11.422;2023-05-07T08:32:15;5.10;;;4.07;;
17052;SDS011;8643;48.824;11.422;2023-05-07T08:34:43;5.13;;;4.63;;
17052;SDS011;8643;48.824;11.422;2023-05-07T08:37:13;6.57;;;4.88;;
17052;SDS011;8643;48.824;11.422;2023-05-07T08:39:42;5.97;;;4.80;;
17052;SDS011;8643;48.824;11.422;2023-05-07T08:42:17;5.45;;;4.65;;
17052;SDS011;8643;48.824;11.422;2023-05-07T08:44:47;5.32;;;4.60;;
17052;SDS011;8643;48.824;11.422;2023-05-07T08:47:22;6.75;;;5.30;;
17052;SDS011;8643;48.824;11.422;2023-05-07T08:50:00;5.30;;;4.43;;
17052;SDS011;8643;48.824;11.422;2023-05-07T08:52:29;6.70;;;4.60;;
17052;SDS011;8643;48.824;11.422;2023-05-07T08:54:58;8.05;;;4.82;;
17052;SDS011;8643;48.824;11.422;2023-05-07T08:57:27;6.15;;;5.10;;
17052;SDS011;8643;48.824;11.422;2023-05-07T08:59:59;5.25;;;4.75;;
17052;SDS011;8643;48.824;11.422;2023-05-07T09:02:28;5.30;;;4.80;;
17052;SDS011;8643;48.824;11.422;2023-05-07T09:04:57;6.45;;;4.43;;
17052;SDS011;8643;48.824;11.422;2023-05-07T09:07:25;7.80;;;4.88;;
17052;SDS011;8643;48.824;11.422;2023-05-07T09:09:55;6.80;;;4.65;;
17052;SDS011;8643;48.824;11.422;2023-05-07T09:12:24;5.30;;;4.80;;
17052;SDS011;8643;48.824;11.422;2023-05-07T09:14:54;7.28;;;4.70;;
17052;SDS011;8643;48.824;11.422;2023-05-07T09:17:25;6.38;;;5.10;;
17052;SDS011;8643;48.824;11.422;2023-05-07T09:19:53;6.97;;;5.25;;
17052;SDS011;8643;48.824;11.422;2023-05-07T09:22:22;5.25;;;4.53;;
17052;SDS011;8643;48.824;11.422;2023-05-07T09:24:59;6.40;;;5.15;;
17052;SDS011;8643;48.824;11.422;2023-05-07T09:27:29;5.57;;;5.00;;
17052;SDS011;8643;48.824;11.422;2023-05-07T09:29:59;6.45;;;5.75;;
17052;SDS011;8643;48.824;11.422;2023-05-07T09:32:33;7.82;;;5.60;;
17052;SDS011;8643;48.824;11.422;2023-05-07T09:35:08;6.20;;;5.60;;
17052;SDS011;8643;48.824;11.422;2023-05-07T09:37:47;5.68;;;5.07;;
17052;SDS011;8643;48.824;11.422;2023-05-07T09:40:20;6.03;;;4.80;;
17052;SDS011;8643;48.824;11.422;2023-05-07T09:42:50;6.60;;;5.07;;
17052;SDS011;8643;48.824;11.422;2023-05-07T09:45:24;6.05;;;4.65;;
17052;SDS011;8643;48.824;11.422;2023-05-07T09:47:57;6.05;;;5.22;;
17052;SDS011;8643;48.824;11.422;2023-05-07T09:50:29;6.35;;;5.20;;
17052;SDS011;8643;48.824;11.422;2023-05-07T09:53:03;5.30;;;4.80;;
17052;SDS011;8643;48.824;11.422;2023-05-07T09:55:32;7.10;;;5.68;;
17052;SDS011;8643;48.824;11.422;2023-05-07T09:58:02;6.65;;;5.35;;
17052;SDS011;8643;48.824;11.422;2023-05-07T10:00:33;7.40;;;4.60;;
17052;SDS011;8643;48.824;11.422;2023-05-07T10:03:10;6.80;;;4.80;;
17052;SDS011;8643;48.824;11.422;2023-05-07T10:05:51;6.53;;;4.32;;
17052;SDS011;8643;48.824;11.422;2023-05-07T10:08:21;8.15;;;4.95;;
17052;SDS011;8643;48.824;11.422;2023-05-07T10:10:54;6.78;;;4.13;;
17052;SDS011;8643;48.824;11.422;2023-05-07T10:13:25;5.85;;;4.35;;
17052;SDS011;8643;48.824;11.422;2023-05-07T10:15:57;5.22;;;3.70;;
17052;SDS011;8643;48.824;11.422;2023-05-07T10:18:33;5.47;;;4.45;;
17052;SDS011;8643;48.824;11.422;2023-05-07T10:21:11;3.10;;;2.80;;
17052;SDS011;8643;48.824;11.422;2023-05-07T10:23:48;3.85;;;2.83;;
17052;SDS011;8643;48.824;11.422;2023-05-07T10:26:24;4.72;;;3.90;;
17052;SDS011;8643;48.824;11.422;2023-05-07T10:28:58;6.30;;;3.83;;
17052;SDS011;8643;48.824;11.422;2023-05-07T10:31:37;4.18;;;3.20;;
17052;SDS011;8643;48.824;11.422;2023-05-07T10:34:26;5.45;;;4.18;;
17052;SDS011;8643;48.824;11.422;2023-05-07T10:37:03;6.65;;;3.90;;
17052;SDS011;8643;48.824;11.422;2023-05-07T10:39:33;4.38;;;2.88;;
17052;SDS011;8643;48.824;11.422;2023-05-07T10:42:08;3.67;;;2.58;;
17052;SDS011;8643;48.824;11.422;2023-05-07T10:44:42;4.93;;;2.10;;
17052;SDS011;8643;48.824;11.422;2023-05-07T10:47:17;2.85;;;2.22;;
17052;SDS011;8643;48.824;11.422;2023-05-07T10:56:26;5.45;;;2.40;;
17052;SDS011;8643;48.824;11.422;2023-05-07T11:02:31;3.47;;;2.30;;
17052;SDS011;8643;48.824;11.422;2023-05-07T11:05:50;3.15;;;2.25;;
17052;SDS011;8643;48.824;11.422;2023-05-07T11:08:52;2.58;;;2.08;;
17052;SDS011;8643;48.824;11.422;2023-05-07T11:17:23;3.58;;;2.00;;
17052;SDS011;8643;48.824;11.422;2023-05-07T11:20:01;2.15;;;1.73;;
17052;SDS011;8643;48.824;11.422;2023-05-07T11:22:47;2.88;;;1.60;;
17052;SDS011;8643;48.824;11.422;2023-05-07T11:25:23;2.90;;;1.63;;
17052;SDS011;8643;48.824;11.422;2023-05-07T11:28:12;2.08;;;1.63;;
17052;SDS011;8643;48.824;11.422;2023-05-07T11:30:48;2.35;;;1.85;;
17052;SDS011;8643;48.824;11.422;2023-05-07T11:33:20;3.33;;;2.10;;
17052;SDS011;8643;48.824;11.422;2023-05-07T11:35:52;1.73;;;1.63;;
17052;SDS011;8643;48.824;11.422;2023-05-07T11:38:28;2.22;;;1.60;;
17052;SDS011;8643;48.824;11.422;2023-05-07T11:40:58;5.07;;;1.85;;
17052;SDS011;8643;48.824;11.422;2023-05-07T11:43:30;2.53;;;1.90;;
17052;SDS011;8643;48.824;11.422;2023-05-07T11:46:05;2.10;;;1.90;;
17052;SDS011;8643;48.824;11.422;2023-05-07T11:48:37;2.97;;;1.50;;
17052;SDS011;8643;48.824;11.422;2023-05-07T11:51:09;2.60;;;2.20;;
17052;SDS011;8643;48.824;11.422;2023-05-07T11:53:40;2.13;;;1.92;;
17052;SDS011;8643;48.824;11.422;2023-05-07T11:56:10;3.47;;;1.75;;
17052;SDS011;8643;48.824;11.422;2023-05-07T11:58:42;3.78;;;2.10;;
17052;SDS011;8643;48.824;11.422;2023-05-07T12:01:12;7.25;;;2.35;;
17052;SDS011;8643;48.824;11.422;2023-05-07T12:03:43;2.30;;;2.10;;
17052;SDS011;8643;48.824;11.422;2023-05-07T12:06:14;3.00;;;2.00;;
17052;SDS011;8643;48.824;11.422;2023-05-07T12:08:46;2.75;;;2.10;;
17052;SDS011;8643;48.824;11.422;2023-05-07T12:11:16;2.85;;;2.00;;
17052;SDS011;8643;48.824;11.422;2023-05-07T12:13:51;2.85;;;1.90;;
17052;SDS011;8643;48.824;11.422;2023-05-07T12:16:24;2.00;;;1.80;;
17052;SDS011;8643;48.824;11.422;2023-05-07T12:18:54;2.42;;;2.00;;
17052;SDS011;8643;48.824;11.422;2023-05-07T12:21:25;3.10;;;2.05;;
17052;SDS011;8643;48.824;11.422;2023-05-07T12:23:55;3.10;;;2.00;;
17052;SDS011;8643;48.824;11.422;2023-05-07T12:26:24;2.80;;;1.75;;
17052;SDS011;8643;48.824;11.422;2023-05-07T12:28:53;3.85;;;2.03;;
17052;SDS011;8643;48.824;11.422;2023-05-07T12:31:21;3.30;;;2.25;;
17052;SDS011;8643;48.824;11.422;2023-05-07T12:33:52;3.63;;;2.00;;
17052;SDS011;8643;48.824;11.422;2023-05-07T12:36:21;2.95;;;2.10;;
17052;SDS011;8643;48.824;11.422;2023-05-07T12:38:51;2.75;;;1.80;;
17052;SDS011;8643;48.824;11.422;2023-05-07T12:41:23;4.10;;;1.98;;
17052;SDS011;8643;48.824;11.422;2023-05-07T12:43:56;2.30;;;1.80;;
17052;SDS011;8643;48.824;11.422;2023-05-07T12:46:24;2.08;;;1.70;;
17052;SDS011;8643;48.824;11.422;2023-05-07T12:48:53;2.90;;;2.22;;
17052;SDS011;8643;48.824;11.422;2023-05-07T12:51:22;3.08;;;1.95;;
17052;SDS011;8643;48.824;11.422;2023-05-07T12:53:51;2.08;;;1.80;;
17052;SDS011;8643;48.824;11.422;2023-05-07T12:56:25;5.00;;;1.98;;
17052;SDS011;8643;48.824;11.422;2023-05-07T12:58:56;4.90;;;2.13;;
17052;SDS011;8643;48.824;11.422;2023-05-07T13:01:28;1.95;;;1.70;;
17052;SDS011;8643;48.824;11.422;2023-05-07T13:04:00;1.55;;;1.45;;
17052;SDS011;8643;48.824;11.422;2023-05-07T13:06:32;2.65;;;1.48;;
17052;SDS011;8643;48.824;11.422;2023-05-07T13:09:01;4.75;;;1.48;;
17052;SDS011;8643;48.824;11.422;2023-05-07T13:11:30;2.40;;;1.55;;
17052;SDS011;8643;48.824;11.422;2023-05-07T13:13:59;2.05;;;1.60;;
17052;SDS011;8643;48.824;11.422;2023-05-07T13:16:28;2.03;;;1.38;;
17052;SDS011;8643;48.824;11.422;2023-05-07T13:18:56;2.50;;;1.50;;
17052;SDS011;8643;48.824;11.422;2023-05-07T13:21:25;2.92;;;1.40;;
17052;SDS011;8643;48.824;11.422;2023-05-07T13:23:54;1.52;;;1.40;;
17052;SDS011;8643;48.824;11.422;2023-05-07T13:26:24;2.08;;;1.50;;
17052;SDS011;8643;48.824;11.422;2023-05-07T13:28:55;1.83;;;1.52;;
17052;SDS011;8643;48.824;11.422;2023-05-07T13:31:23;3.28;;;1.60;;
17052;SDS011;8643;48.824;11.422;2023-05-07T13:33:52;2.83;;;1.55;;
17052;SDS011;8643;48.824;11.422;2023-05-07T13:36:22;3.15;;;1.50;;
17052;SDS011;8643;48.824;11.422;2023-05-07T13:38:51;2.53;;;1.60;;
17052;SDS011;8643;48.824;11.422;2023-05-07T13:41:20;2.58;;;1.33;;
17052;SDS011;8643;48.824;11.422;2023-05-07T13:43:48;1.77;;;1.48;;
17052;SDS011;8643;48.824;11.422;2023-05-07T13:46:18;1.92;;;1.40;;
17052;SDS011;8643;48.824;11.422;2023-05-07T13:48:47;1.70;;;1.48;;
17052;SDS011;8643;48.824;11.422;2023-05-07T13:51:16;1.52;;;1.20;;
17052;SDS011;8643;48.824;11.422;2023-05-07T13:53:45;2.20;;;1.40;;
17052;SDS011;8643;48.824;11.422;2023-05-07T13:56:14;2.08;;;1.48;;
17052;SDS011;8643;48.824;11.422;2023-05-07T13:58:43;2.35;;;1.50;;
17052;SDS011;8643;48.824;11.422;2023-05-07T14:01:26;2.90;;;1.48;;
17052;SDS011;8643;48.824;11.422;2023-05-07T14:03:55;3.67;;;1.42;;
17052;SDS011;8643;48.824;11.422;2023-05-07T14:06:25;1.90;;;1.60;;
17052;SDS011;8643;48.824;11.422;2023-05-07T14:08:54;3.42;;;1.65;;
17052;SDS011;8643;48.824;11.422;2023-05-07T14:11:24;1.67;;;1.40;;
17052;SDS011;8643;48.824;11.422;2023-05-07T14:13:53;1.60;;;1.35;;
17052;SDS011;8643;48.824;11.422;2023-05-07T14:16:23;2.70;;;1.58;;
17052;SDS011;8643;48.824;11.422;2023-05-07T14:18:53;1.77;;;1.40;;
17052;SDS011;8643;48.824;11.422;2023-05-07T14:21:23;1.55;;;1.40;;
17052;SDS011;8643;48.824;11.422;2023-05-07T14:23:52;2.75;;;1.40;;
17052;SDS011;8643;48.824;11.422;2023-05-07T14:26:22;1.88;;;1.35;;
17052;SDS011;8643;48.824;11.422;2023-05-07T14:28:53;3.72;;;1.48;;
17052;SDS011;8643;48.824;11.422;2023-05-07T14:31:23;1.38;;;1.27;;
17052;SDS011;8643;48.824;11.422;2023-05-07T14:33:54;1.70;;;1.40;;
17052;SDS011;8643;48.824;11.422;2023-05-07T14:36:24;2.60;;;1.38;;
17052;SDS011;8643;48.824;11.422;2023-05-07T14:38:53;1.50;;;1.20;;
17052;SDS011;8643;48.824;11.422;2023-05-07T14:41:23;1.70;;;1.60;;
17052;SDS011;8643;48.824;11.422;2023-05-07T14:43:51;1.83;;;1.50;;
17052;SDS011;8643;48.824;11.422;2023-05-07T14:46:19;1.52;;;1.33;;
17052;SDS011;8643;48.824;11.422;2023-05-07T14:48:50;1.75;;;1.30;;
17052;SDS011;8643;48.824;11.422;2023-05-07T14:51:20;1.98;;;1.63;;
17052;SDS011;8643;48.824;11.422;2023-05-07T14:53:50;3.05;;;1.70;;
17052;SDS011;8643;48.824;11.422;2023-05-07T14:56:18;2.60;;;1.92;;
17052;SDS011;8643;48.824;11.422;2023-05-07T14:58:48;4.18;;;1.80;;
17052;SDS011;8643;48.824;11.422;2023-05-07T15:01:16;1.98;;;1.58;;
17052;SDS011;8643;48.824;11.422;2023-05-07T15:03:45;3.67;;;1.60;;
17052;SDS011;8643;48.824;11.422;2023-05-07T15:06:14;2.40;;;1.70;;
17052;SDS011;8643;48.824;11.422;2023-05-07T15:08:44;2.28;;;1.75;;
17052;SDS011;8643;48.824;11.422;2023-05-07T15:11:13;2.20;;;1.50;;
17052;SDS011;8643;48.824;11.422;2023-05-07T15:13:42;2.60;;;1.75;;
17052;SDS011;8643;48.824;11.422;2023-05-07T15:16:11;2.20;;;1.75;;
17052;SDS011;8643;48.824;11.422;2023-05-07T15:18:40;2.60;;;1.90;;
17052;SDS011;8643;48.824;11.422;2023-05-07T15:21:10;2.22;;;1.90;;
17052;SDS011;8643;48.824;11.422;2023-05-07T15:23:39;1.70;;;1.60;;
17052;SDS011;8643;48.824;11.422;2023-05-07T15:26:11;1.70;;;1.60;;